Pagina principale
METAR-TAF:

METAR-TAF

Aeroporti :

Aeroporto di Taranto-Grottaglie

Taranto, Italia

latitudine: 40-31N, longitudine: 017-24E, altezza: 64 m

Osservazione

Il bollettino è stato emesso 1 ora e 31 minuti fa, alle 17:50 UTC
Vento 11 kt da nord
Temperature 22°C
Umidità 46%
Pressione 1014 hPa
Visibilità 10 km o più
nessuna nube inferiore a 1500 m e nessun cumulonembo

METAR: LIBG 231750Z 01011KT CAVOK 22/10 Q1014

Ora: 21:21 (19:21 UTC)

Previsione

Il bollettino è stato emesso 5 ore e 21 minuti fa, alle 14:00 UTC
Previsione valida dal 23 alle 15 UTC al 23 alle 24 UTC
Vento 14 kt da nord
Visibilità 10 km o più
Nubi sparse ad un'altezza di 3500 ft
Evoluzione graduale
dal 23 alle 18 UTC al 23 alle 20 UTC
Vento 5 kt da direzioni variabili

TAF: LIBG 231400Z 2315/2324 01014KT 9999 SCT035 BECMG 2318/2320 VRB05KT

Osservazioni e previsioni meteorologiche di più di 4000 aeroporti (messaggi METAR e TAF).

Le stazioni disponibili sono rappresentate dai dischi gialli e rossi sulla carta.

Puntare il mouse per vedere il nome della stazione.

Clicca sopra per visualizzare le osservazioni e previsioni meteorologiche.

Per cambiare la mappa : fare clic sui pulsanti verdi con una croce nera per ingrandire, il pulsante verde con un trattino per diminuire, o sulla freccia verde per le mappe adiacenti.


METAR-TAF: